<?xml version="1.0" encoding="UTF-8" standalone="no" ?>
<gpx xmlns="http://www.topografix.com/GPX/1/1" xmlns:xsi="http://www.w3.org/2001/XMLSchema-instance" xsi:schemaLocation="http://www.topografix.com/GPX/1/1 http://www.topografix.com/GPX/1/1/gpx.xsd" version="1.1" creator="VisuGPX - https://www.visugpx.com">
  <metadata>
    <name>Château de Ratilly-Treigny</name>
    <desc><![CDATA[Château de Ratilly-Treigny : 2km-40m]]></desc>
  </metadata>
  <trk>
    <name><![CDATA[2016-04-02 17:43:52]]></name>
    <trkseg>
      <trkpt lat="47.55429" lon="3.16737">
        <ele>283.63</ele>
        <time>2016-04-02T15:13:00Z</time>
      </trkpt>
      <trkpt lat="47.55428" lon="3.16737">
        <ele>283.63</ele>
        <time>2016-04-02T15:13:01Z</time>
      </trkpt>
      <trkpt lat="47.55421" lon="3.16734">
        <ele>283</ele>
        <time>2016-04-02T15:13:17Z</time>
      </trkpt>
      <trkpt lat="47.55412" lon="3.16737">
        <ele>282.45</ele>
        <time>2016-04-02T15:13:38Z</time>
      </trkpt>
      <trkpt lat="47.55386" lon="3.16737">
        <ele>282.43</ele>
        <time>2016-04-02T15:14:10Z</time>
      </trkpt>
      <trkpt lat="47.55375" lon="3.16736">
        <ele>282.35</ele>
        <time>2016-04-02T15:14:23Z</time>
      </trkpt>
      <trkpt lat="47.55357" lon="3.16734">
        <ele>281.65</ele>
        <time>2016-04-02T15:14:45Z</time>
      </trkpt>
      <trkpt lat="47.5535" lon="3.16734">
        <ele>281.38</ele>
        <time>2016-04-02T15:15:06Z</time>
      </trkpt>
      <trkpt lat="47.55345" lon="3.1673">
        <ele>280.92</ele>
        <time>2016-04-02T15:15:27Z</time>
      </trkpt>
      <trkpt lat="47.55004" lon="3.16865">
        <ele>252.8</ele>
        <time>2016-04-02T15:24:45Z</time>
      </trkpt>
      <trkpt lat="47.54989" lon="3.16866">
        <ele>251.19</ele>
        <time>2016-04-02T15:25:00Z</time>
      </trkpt>
      <trkpt lat="47.54967" lon="3.16873">
        <ele>250.41</ele>
        <time>2016-04-02T15:25:18Z</time>
      </trkpt>
      <trkpt lat="47.54964" lon="3.16875">
        <ele>250.21</ele>
        <time>2016-04-02T15:25:21Z</time>
      </trkpt>
      <trkpt lat="47.54958" lon="3.16881">
        <ele>249.81</ele>
        <time>2016-04-02T15:25:27Z</time>
      </trkpt>
      <trkpt lat="47.5496" lon="3.16898">
        <ele>249.19</ele>
        <time>2016-04-02T15:25:43Z</time>
      </trkpt>
      <trkpt lat="47.54962" lon="3.16907">
        <ele>248.7</ele>
        <time>2016-04-02T15:25:49Z</time>
      </trkpt>
      <trkpt lat="47.5497" lon="3.16927">
        <ele>247.71</ele>
        <time>2016-04-02T15:26:05Z</time>
      </trkpt>
      <trkpt lat="47.54974" lon="3.16953">
        <ele>246.89</ele>
        <time>2016-04-02T15:26:20Z</time>
      </trkpt>
      <trkpt lat="47.54984" lon="3.16976">
        <ele>245.5</ele>
        <time>2016-04-02T15:26:39Z</time>
      </trkpt>
      <trkpt lat="47.54992" lon="3.16994">
        <ele>244.74</ele>
        <time>2016-04-02T15:26:53Z</time>
      </trkpt>
      <trkpt lat="47.54993" lon="3.16996">
        <ele>244.53</ele>
        <time>2016-04-02T15:26:55Z</time>
      </trkpt>
      <trkpt lat="47.55005" lon="3.17028">
        <ele>243.06</ele>
        <time>2016-04-02T15:27:16Z</time>
      </trkpt>
      <trkpt lat="47.55014" lon="3.17059">
        <ele>242.76</ele>
        <time>2016-04-02T15:27:36Z</time>
      </trkpt>
      <trkpt lat="47.5502" lon="3.1708">
        <ele>242.66</ele>
        <time>2016-04-02T15:27:52Z</time>
      </trkpt>
      <trkpt lat="47.55028" lon="3.17109">
        <ele>242.22</ele>
        <time>2016-04-02T15:28:11Z</time>
      </trkpt>
      <trkpt lat="47.55035" lon="3.17144">
        <ele>241.93</ele>
        <time>2016-04-02T15:28:29Z</time>
      </trkpt>
      <trkpt lat="47.55043" lon="3.17174">
        <ele>241.52</ele>
        <time>2016-04-02T15:28:48Z</time>
      </trkpt>
      <trkpt lat="47.55053" lon="3.17202">
        <ele>241.09</ele>
        <time>2016-04-02T15:29:08Z</time>
      </trkpt>
      <trkpt lat="47.55065" lon="3.17237">
        <ele>241.12</ele>
        <time>2016-04-02T15:29:32Z</time>
      </trkpt>
      <trkpt lat="47.55074" lon="3.1726">
        <ele>241.45</ele>
        <time>2016-04-02T15:29:49Z</time>
      </trkpt>
      <trkpt lat="47.55078" lon="3.17267">
        <ele>241.57</ele>
        <time>2016-04-02T15:29:54Z</time>
      </trkpt>
      <trkpt lat="47.55087" lon="3.17293">
        <ele>241.77</ele>
        <time>2016-04-02T15:30:13Z</time>
      </trkpt>
      <trkpt lat="47.55089" lon="3.17302">
        <ele>241.94</ele>
        <time>2016-04-02T15:30:21Z</time>
      </trkpt>
      <trkpt lat="47.55096" lon="3.1732">
        <ele>242.32</ele>
        <time>2016-04-02T15:30:36Z</time>
      </trkpt>
      <trkpt lat="47.55104" lon="3.17331">
        <ele>242.96</ele>
        <time>2016-04-02T15:30:53Z</time>
      </trkpt>
      <trkpt lat="47.55115" lon="3.17363">
        <ele>243.87</ele>
        <time>2016-04-02T15:31:16Z</time>
      </trkpt>
      <trkpt lat="47.55116" lon="3.17393">
        <ele>244.24</ele>
        <time>2016-04-02T15:31:34Z</time>
      </trkpt>
      <trkpt lat="47.55119" lon="3.1742">
        <ele>244.32</ele>
        <time>2016-04-02T15:31:51Z</time>
      </trkpt>
      <trkpt lat="47.55121" lon="3.17442">
        <ele>244.16</ele>
        <time>2016-04-02T15:32:04Z</time>
      </trkpt>
      <trkpt lat="47.55121" lon="3.17473">
        <ele>243.53</ele>
        <time>2016-04-02T15:32:23Z</time>
      </trkpt>
      <trkpt lat="47.55121" lon="3.17485">
        <ele>243.13</ele>
        <time>2016-04-02T15:32:29Z</time>
      </trkpt>
      <trkpt lat="47.55122" lon="3.17495">
        <ele>242.81</ele>
        <time>2016-04-02T15:32:38Z</time>
      </trkpt>
      <trkpt lat="47.55121" lon="3.17528">
        <ele>241.57</ele>
        <time>2016-04-02T15:32:57Z</time>
      </trkpt>
      <trkpt lat="47.55122" lon="3.17559">
        <ele>240.52</ele>
        <time>2016-04-02T15:33:17Z</time>
      </trkpt>
      <trkpt lat="47.55123" lon="3.17589">
        <ele>239.2</ele>
        <time>2016-04-02T15:33:35Z</time>
      </trkpt>
      <trkpt lat="47.55124" lon="3.1762">
        <ele>238.2</ele>
        <time>2016-04-02T15:33:53Z</time>
      </trkpt>
      <trkpt lat="47.55124" lon="3.17631">
        <ele>238.03</ele>
        <time>2016-04-02T15:33:59Z</time>
      </trkpt>
      <trkpt lat="47.55126" lon="3.17666">
        <ele>237.1</ele>
        <time>2016-04-02T15:34:17Z</time>
      </trkpt>
      <trkpt lat="47.55128" lon="3.1769">
        <ele>236.37</ele>
        <time>2016-04-02T15:34:32Z</time>
      </trkpt>
      <trkpt lat="47.55129" lon="3.17718">
        <ele>235.37</ele>
        <time>2016-04-02T15:34:49Z</time>
      </trkpt>
      <trkpt lat="47.55131" lon="3.17741">
        <ele>234.35</ele>
        <time>2016-04-02T15:35:04Z</time>
      </trkpt>
      <trkpt lat="47.55131" lon="3.17767">
        <ele>233.33</ele>
        <time>2016-04-02T15:35:22Z</time>
      </trkpt>
      <trkpt lat="47.55132" lon="3.17793">
        <ele>232.35</ele>
        <time>2016-04-02T15:35:38Z</time>
      </trkpt>
      <trkpt lat="47.55134" lon="3.17812">
        <ele>231.69</ele>
        <time>2016-04-02T15:35:50Z</time>
      </trkpt>
      <trkpt lat="47.55136" lon="3.17828">
        <ele>230.71</ele>
        <time>2016-04-02T15:36:07Z</time>
      </trkpt>
      <trkpt lat="47.55135" lon="3.17829">
        <ele>230.69</ele>
        <time>2016-04-02T15:36:09Z</time>
      </trkpt>
      <trkpt lat="47.55133" lon="3.17848">
        <ele>229.44</ele>
        <time>2016-04-02T15:36:27Z</time>
      </trkpt>
      <trkpt lat="47.55136" lon="3.17874">
        <ele>227.85</ele>
        <time>2016-04-02T15:36:45Z</time>
      </trkpt>
      <trkpt lat="47.55136" lon="3.1791">
        <ele>226.43</ele>
        <time>2016-04-02T15:37:04Z</time>
      </trkpt>
      <trkpt lat="47.55136" lon="3.17931">
        <ele>225.56</ele>
        <time>2016-04-02T15:37:18Z</time>
      </trkpt>
      <trkpt lat="47.55136" lon="3.17937">
        <ele>225.33</ele>
        <time>2016-04-02T15:37:22Z</time>
      </trkpt>
      <trkpt lat="47.55133" lon="3.17971">
        <ele>224.68</ele>
        <time>2016-04-02T15:37:38Z</time>
      </trkpt>
      <trkpt lat="47.55133" lon="3.17977">
        <ele>224.62</ele>
        <time>2016-04-02T15:37:41Z</time>
      </trkpt>
      <trkpt lat="47.55132" lon="3.1799">
        <ele>224.52</ele>
        <time>2016-04-02T15:37:48Z</time>
      </trkpt>
      <trkpt lat="47.5513" lon="3.18011">
        <ele>224.57</ele>
        <time>2016-04-02T15:38:00Z</time>
      </trkpt>
      <trkpt lat="47.55127" lon="3.18036">
        <ele>224.72</ele>
        <time>2016-04-02T15:38:14Z</time>
      </trkpt>
      <trkpt lat="47.55121" lon="3.18056">
        <ele>224.84</ele>
        <time>2016-04-02T15:38:28Z</time>
      </trkpt>
      <trkpt lat="47.55118" lon="3.18076">
        <ele>225.51</ele>
        <time>2016-04-02T15:38:41Z</time>
      </trkpt>
      <trkpt lat="47.55115" lon="3.18083">
        <ele>225.71</ele>
        <time>2016-04-02T15:38:46Z</time>
      </trkpt>
      <trkpt lat="47.5511" lon="3.18102">
        <ele>225.98</ele>
        <time>2016-04-02T15:39:06Z</time>
      </trkpt>
      <trkpt lat="47.55108" lon="3.18111">
        <ele>226.39</ele>
        <time>2016-04-02T15:39:11Z</time>
      </trkpt>
      <trkpt lat="47.55107" lon="3.18121">
        <ele>226.74</ele>
        <time>2016-04-02T15:39:18Z</time>
      </trkpt>
      <trkpt lat="47.55105" lon="3.18126">
        <ele>226.95</ele>
        <time>2016-04-02T15:39:22Z</time>
      </trkpt>
      <trkpt lat="47.55098" lon="3.18149">
        <ele>228.14</ele>
        <time>2016-04-02T15:39:37Z</time>
      </trkpt>
      <trkpt lat="47.55097" lon="3.18158">
        <ele>228.49</ele>
        <time>2016-04-02T15:39:42Z</time>
      </trkpt>
      <trkpt lat="47.55093" lon="3.18162">
        <ele>228.76</ele>
        <time>2016-04-02T15:39:46Z</time>
      </trkpt>
      <trkpt lat="47.55076" lon="3.18168">
        <ele>229.74</ele>
        <time>2016-04-02T15:40:04Z</time>
      </trkpt>
      <trkpt lat="47.55075" lon="3.18169">
        <ele>229.72</ele>
        <time>2016-04-02T15:40:28Z</time>
      </trkpt>
      <trkpt lat="47.55077" lon="3.18171">
        <ele>229.84</ele>
        <time>2016-04-02T15:43:50Z</time>
      </trkpt>
      <trkpt lat="47.55077" lon="3.18171">
        <ele>229.27</ele>
        <time>2016-04-02T15:43:51Z</time>
      </trkpt>
    </trkseg>
  </trk>
</gpx>